KCVG/CVG METAR and TAF weather

Enter ICAO airport designator
Station Type Date Time Source
KCVG METAR 2020/02/21 14:52 UTC NOAA

KCVG 211452Z 00000KT 10SM CLR M05/M11 A3065 RMK AO2 SLP391 T10501111 51015


Station Type Date Time Source
KCVG Decoded METAR 2020/02/21 14:52 UTC NOAA

CINCINNATI/NORTHERN KY INTERNATIONAL , KY, United States (KCVG) 39-03N 084-40W 269M
Feb 21, 2020 - 09:52 AM EST / 2020.02.21 1452 UTC
Wind: Calm:0
Visibility: 10 mile(s):0
Sky conditions: clear
Temperature: 23.0 F (-5.0 C)
Dew Point: 12.0 F (-11.1 C)
Relative Humidity: 62%
Pressure (altimeter): 30.65 in. Hg (1037 hPa)
Pressure tendency: 0.04 inches (1.5 hPa) higher than three hours ago
ob: KCVG 211452Z 00000KT 10SM CLR M05/M11 A3065 RMK AO2 SLP391 T10501111 51015
cycle: 15

Station Type Date Time Source
KCVG TAF 2020/02/21 15:58 UTC NOAA

TAF
AMD KCVG 211456Z 2115/2218 27004KT P6SM SKC
FM212000 24007KT P6SM SKC
FM220000 22005KT P6SM SKC

Example: see airport list